createdAt,value
2022-11-01T00:00:03.409Z,100.00
2022-11-01T00:02:06.190Z,100.00
2022-11-01T00:04:09.690Z,100.00
2022-11-01T00:06:12.295Z,100.00
2022-11-01T00:08:14.881Z,100.00
2022-11-01T00:12:20.244Z,100.00
2022-11-01T00:14:24.216Z,100.00
2022-11-01T00:16:27.243Z,100.00
2022-11-01T00:18:29.992Z,100.00
2022-11-01T00:20:32.642Z,100.00
2022-11-01T00:22:35.299Z,100.00
2022-11-01T00:24:37.841Z,100.00
2022-11-01T00:26:40.855Z,100.00
2022-11-01T00:28:43.521Z,100.00
2022-11-01T00:30:47.483Z,100.00
2022-11-01T00:32:50.071Z,100.00
2022-11-01T00:34:52.641Z,100.00
2022-11-01T00:36:55.273Z,100.00
2022-11-01T00:38:57.881Z,100.00
2022-11-01T00:41:02.526Z,100.00
2022-11-01T00:43:05.214Z,100.00
2022-11-01T00:45:08.735Z,100.00
2022-11-01T00:47:12.701Z,100.00
2022-11-01T00:49:15.295Z,100.00
2022-11-01T00:51:17.884Z,100.00
2022-11-01T00:53:20.991Z,100.00
2022-11-01T00:55:23.611Z,100.00
2022-11-01T00:57:26.384Z,100.00
2022-11-01T00:59:29.568Z,100.00
2022-11-01T01:01:33.160Z,100.00
2022-11-01T01:03:37.538Z,100.00
2022-11-01T01:05:40.240Z,100.00
2022-11-01T01:07:42.968Z,100.00
2022-11-01T01:09:45.527Z,100.00
2022-11-01T01:11:48.182Z,100.00
2022-11-01T01:13:50.785Z,100.00
2022-11-01T01:15:53.405Z,100.00
2022-11-01T01:17:56.046Z,100.00
2022-11-01T01:20:00.047Z,100.00
2022-11-01T01:22:02.908Z,100.00
2022-11-01T01:24:05.800Z,100.00
2022-11-01T01:26:10.096Z,100.00
2022-11-01T01:28:12.702Z,100.00
2022-11-01T01:30:15.880Z,100.00
2022-11-01T01:32:21.951Z,100.00
2022-11-01T01:34:24.736Z,100.00
2022-11-01T01:36:28.694Z,100.00
2022-11-01T01:38:31.312Z,100.00
2022-11-01T01:40:34.126Z,100.00
2022-11-01T01:42:37.879Z,100.00
2022-11-01T01:45:16.068Z,100.00
2022-11-01T01:47:22.662Z,100.00
2022-11-01T01:49:25.102Z,100.00
2022-11-01T01:51:30.426Z,100.00
2022-11-01T01:53:36.089Z,100.00
2022-11-01T01:55:43.914Z,100.00
2022-11-01T01:57:47.448Z,100.00
2022-11-01T01:59:50.127Z,100.00
2022-11-01T02:01:53.085Z,100.00
2022-11-01T02:03:55.861Z,100.00
2022-11-01T02:06:02.414Z,100.00
2022-11-01T02:08:07.930Z,100.00
2022-11-01T02:10:11.752Z,100.00
2022-11-01T02:12:15.312Z,100.00
2022-11-01T02:14:18.738Z,100.00
2022-11-01T02:16:37.938Z,100.00
2022-11-01T02:18:46.132Z,100.00
2022-11-01T02:21:11.336Z,100.00
2022-11-01T02:23:41.943Z,100.00
2022-11-01T02:26:10.403Z,100.00
2022-11-01T02:28:30.907Z,100.00
2022-11-01T02:30:42.085Z,100.00
2022-11-01T02:33:05.321Z,100.00
2022-11-01T02:35:16.445Z,100.00
2022-11-01T02:37:26.685Z,100.00
2022-11-01T02:39:33.304Z,100.00
2022-11-01T02:41:42.012Z,100.00
2022-11-01T02:43:51.864Z,100.00
2022-11-01T02:45:54.590Z,100.00
2022-11-01T02:47:59.429Z,100.00
2022-11-01T02:50:06.089Z,100.00
2022-11-01T02:52:13.307Z,100.00
2022-11-01T02:54:21.580Z,100.00
2022-11-01T02:56:24.351Z,100.00
2022-11-01T02:58:31.928Z,100.00
2022-11-01T03:00:37.364Z,100.00
2022-11-01T03:02:44.580Z,100.00
2022-11-01T03:04:49.485Z,100.00
2022-11-01T03:06:56.172Z,100.00
2022-11-01T03:09:02.256Z,100.00
2022-11-01T03:11:11.210Z,100.00
2022-11-01T03:13:29.020Z,100.00
2022-11-01T03:15:39.836Z,100.00
2022-11-01T03:17:49.255Z,100.00
2022-11-01T03:19:59.939Z,100.00
2022-11-01T03:22:09.763Z,100.00
2022-11-01T03:24:21.679Z,100.00
2022-11-01T03:26:28.394Z,100.00
2022-11-01T03:28:38.140Z,100.00
2022-11-01T03:30:44.409Z,100.00
2022-11-01T03:32:50.603Z,100.00
2022-11-01T03:34:55.055Z,100.00
2022-11-01T03:37:01.980Z,100.00
2022-11-01T03:39:11.698Z,100.00
2022-11-01T03:41:17.719Z,100.00
2022-11-01T03:43:23.365Z,100.00
2022-11-01T03:45:28.080Z,100.00
2022-11-01T03:47:30.936Z,100.00
2022-11-01T03:49:33.580Z,100.00
2022-11-01T03:51:37.615Z,100.00
2022-11-01T03:53:40.303Z,100.00
2022-11-01T03:55:43.202Z,100.00
2022-11-01T03:57:46.776Z,100.00
2022-11-01T03:59:49.395Z,100.00
2022-11-01T04:01:52.747Z,100.00
2022-11-01T04:03:55.470Z,100.00
2022-11-01T04:05:58.153Z,100.00
2022-11-01T04:08:02.125Z,100.00
2022-11-01T04:10:05.536Z,100.00
2022-11-01T04:12:08.447Z,100.00
2022-11-01T04:14:28.936Z,100.00
2022-11-01T04:16:49.345Z,100.00
2022-11-01T04:19:09.685Z,100.00
2022-11-01T04:21:15.115Z,100.00
2022-11-01T04:23:19.511Z,100.00
2022-11-01T04:25:22.142Z,100.00
2022-11-01T04:27:24.945Z,100.00
2022-11-01T04:29:28.356Z,100.00
2022-11-01T04:31:33.149Z,100.00
2022-11-01T04:33:35.854Z,100.00
2022-11-01T04:35:38.726Z,100.00
2022-11-01T04:37:45.664Z,100.00
2022-11-01T04:39:50.156Z,100.00
2022-11-01T04:41:52.718Z,100.00
2022-11-01T04:43:57.027Z,99.91
2022-11-01T04:45:59.930Z,100.00
2022-11-01T04:48:04.307Z,100.00
2022-11-01T04:50:07.463Z,100.00
2022-11-01T04:52:10.016Z,100.00
2022-11-01T04:54:12.604Z,100.00
2022-11-01T04:56:16.529Z,100.00
2022-11-01T04:58:19.101Z,100.00
2022-11-01T05:00:22.883Z,100.00
2022-11-01T05:02:25.754Z,99.47
2022-11-01T05:04:28.457Z,98.55
2022-11-01T05:06:31.051Z,97.98
2022-11-01T05:08:33.628Z,98.17
2022-11-01T05:10:38.948Z,98.01
2022-11-01T05:12:42.874Z,98.50
2022-11-01T05:14:45.646Z,97.65
2022-11-01T05:16:48.195Z,97.95
2022-11-01T05:18:50.854Z,97.00
2022-11-01T05:20:53.417Z,96.29
2022-11-01T05:23:00.393Z,96.90
2022-11-01T05:25:03.368Z,97.16
2022-11-01T05:27:06.010Z,97.55
2022-11-01T05:29:24.369Z,98.00
2022-11-01T05:31:32.686Z,98.53
2022-11-01T05:33:35.353Z,98.02
2022-11-01T05:35:38.273Z,98.08
2022-11-01T05:37:41.004Z,99.02
2022-11-01T05:39:43.634Z,99.52
2022-11-01T05:41:46.224Z,98.85
2022-11-01T05:43:48.835Z,97.74
2022-11-01T05:45:52.763Z,98.33
2022-11-01T05:47:55.321Z,98.67
2022-11-01T05:49:57.966Z,100.00
2022-11-01T05:52:00.673Z,100.00
2022-11-01T05:54:03.238Z,100.00
2022-11-01T05:56:06.057Z,100.00
2022-11-01T05:58:08.723Z,100.00
2022-11-01T06:00:12.763Z,100.00
2022-11-01T06:02:16.751Z,100.00
2022-11-01T06:04:20.070Z,100.00
2022-11-01T06:06:22.791Z,100.00
2022-11-01T06:08:25.530Z,100.00
2022-11-01T06:10:28.351Z,100.00
2022-11-01T06:12:30.916Z,100.00
2022-11-01T06:16:36.181Z,100.00
2022-11-01T06:18:40.139Z,100.00
2022-11-01T06:20:42.748Z,100.00
2022-11-01T06:22:45.474Z,100.00
2022-11-01T06:24:48.289Z,100.00
2022-11-01T06:26:50.897Z,100.00
2022-11-01T06:28:53.475Z,100.00
2022-11-01T06:30:56.150Z,100.00
2022-11-01T06:33:01.126Z,100.00
2022-11-01T06:35:06.029Z,100.00
2022-11-01T06:37:08.731Z,100.00
2022-11-01T06:39:11.946Z,100.00
2022-11-01T06:41:14.561Z,100.00
2022-11-01T06:43:17.164Z,100.00
2022-11-01T06:45:19.814Z,100.00
2022-11-01T06:47:22.470Z,100.00
2022-11-01T06:49:25.480Z,100.00
2022-11-01T06:51:30.189Z,100.00
2022-11-01T06:53:33.334Z,100.00
2022-11-01T06:55:36.076Z,100.00
2022-11-01T06:57:38.733Z,100.00
2022-11-01T06:59:41.371Z,100.00
2022-11-01T07:01:44.320Z,100.00
2022-11-01T07:03:47.112Z,100.00
2022-11-01T07:05:50.460Z,100.00
2022-11-01T07:07:54.754Z,100.00
2022-11-01T07:09:57.376Z,100.00
2022-11-01T07:11:59.970Z,100.00
2022-11-01T07:14:03.137Z,100.00
2022-11-01T07:16:07.524Z,100.00
2022-11-01T07:18:10.552Z,100.00
2022-11-01T07:20:13.204Z,100.00
2022-11-01T07:22:15.796Z,100.00
2022-11-01T07:24:20.200Z,100.00
2022-11-01T07:26:22.853Z,100.00
2022-11-01T07:28:26.088Z,100.00
2022-11-01T07:30:29.084Z,100.00
2022-11-01T07:32:33.357Z,100.00
2022-11-01T07:34:37.788Z,100.00
2022-11-01T07:36:40.529Z,100.00
2022-11-01T07:38:43.111Z,100.00
2022-11-01T07:40:49.571Z,100.00
2022-11-01T07:42:52.014Z,100.00
2022-11-01T07:44:54.647Z,100.00
2022-11-01T07:46:57.263Z,100.00
2022-11-01T07:49:00.761Z,100.00
2022-11-01T07:51:05.723Z,100.00
2022-11-01T07:53:10.754Z,100.00
2022-11-01T07:55:13.490Z,100.00
2022-11-01T07:57:17.474Z,100.00
2022-11-01T07:59:20.112Z,100.00
2022-11-01T08:01:22.849Z,100.00
2022-11-01T08:03:25.561Z,100.00
2022-11-01T08:05:28.237Z,100.00
2022-11-01T08:07:30.837Z,100.00
2022-11-01T08:09:33.472Z,100.00
2022-11-01T08:11:37.169Z,100.00
2022-11-01T08:13:41.178Z,100.00
2022-11-01T08:15:44.060Z,100.00
2022-11-01T08:17:46.839Z,100.00
2022-11-01T08:19:49.507Z,100.00
2022-11-01T08:21:52.129Z,100.00
2022-11-01T08:23:54.727Z,100.00
2022-11-01T08:25:58.650Z,100.00
2022-11-01T08:28:05.553Z,100.00
2022-11-01T08:30:10.919Z,100.00
2022-11-01T08:32:13.553Z,100.00
2022-11-01T08:34:17.266Z,100.00
2022-11-01T08:36:21.834Z,100.00
2022-11-01T08:38:24.532Z,100.00
2022-11-01T08:40:28.454Z,100.00
2022-11-01T08:42:31.129Z,100.00
2022-11-01T08:44:34.573Z,100.00
2022-11-01T08:46:38.534Z,100.00
2022-11-01T08:48:41.163Z,100.00
2022-11-01T08:50:43.900Z,100.00
2022-11-01T08:52:46.542Z,100.00
2022-11-01T08:54:49.164Z,100.00
2022-11-01T08:56:52.002Z,100.00
2022-11-01T08:58:56.054Z,100.00
2022-11-01T09:00:58.752Z,100.00
2022-11-01T09:03:02.771Z,100.00
2022-11-01T09:05:06.942Z,100.00
2022-11-01T09:07:09.597Z,100.00
2022-11-01T09:09:12.442Z,100.00
2022-11-01T09:11:15.076Z,100.00
2022-11-01T09:13:20.311Z,100.00
2022-11-01T09:15:22.917Z,100.00
2022-11-01T09:17:25.500Z,100.00
2022-11-01T09:19:29.445Z,100.00
2022-11-01T09:21:32.267Z,100.00
2022-11-01T09:23:35.318Z,100.00
2022-11-01T09:25:37.907Z,100.00
2022-11-01T09:27:40.486Z,100.00
2022-11-01T09:29:45.309Z,100.00
2022-11-01T09:31:52.044Z,100.00
2022-11-01T09:33:56.180Z,100.00
2022-11-01T09:36:00.222Z,98.85
2022-11-01T09:38:04.263Z,98.16
2022-11-01T09:40:08.739Z,97.70
2022-11-01T09:42:16.992Z,97.09
2022-11-01T09:44:26.437Z,97.03
2022-11-01T09:46:32.939Z,95.26
2022-11-01T09:48:37.179Z,91.18
2022-11-01T09:50:40.456Z,89.33
2022-11-01T09:52:44.591Z,88.71
2022-11-01T09:54:48.030Z,86.88
2022-11-01T09:56:59.358Z,88.28
2022-11-01T09:59:09.386Z,85.30
2022-11-01T10:01:27.591Z,84.29
2022-11-01T10:03:46.624Z,85.75
2022-11-01T10:05:57.739Z,84.81
2022-11-01T10:08:06.642Z,85.60
2022-11-01T10:10:24.046Z,85.41
2022-11-01T10:12:42.432Z,83.37
2022-11-01T10:15:02.505Z,82.49
2022-11-01T10:17:13.509Z,82.27
2022-11-01T10:19:18.759Z,81.25
2022-11-01T10:21:25.898Z,80.52
2022-11-01T10:23:41.320Z,80.61
2022-11-01T10:25:48.944Z,81.67
2022-11-01T10:28:00.295Z,81.49
2022-11-01T10:30:06.129Z,82.24
2022-11-01T10:32:24.599Z,81.96
2022-11-01T10:34:35.830Z,80.47
2022-11-01T10:36:47.314Z,79.78
2022-11-01T10:39:52.371Z,80.48
2022-11-01T10:41:23.831Z,80.25
2022-11-01T10:43:27.747Z,79.67
2022-11-01T10:45:31.547Z,80.42
2022-11-01T10:47:34.150Z,80.13
2022-11-01T10:50:00.734Z,78.76
2022-11-01T10:52:08.939Z,79.09
2022-11-01T10:54:18.306Z,79.81
2022-11-01T10:56:26.048Z,80.50
2022-11-01T10:58:35.693Z,79.79
2022-11-01T11:00:42.730Z,77.68
2022-11-01T11:02:49.060Z,80.22
2022-11-01T11:04:52.134Z,78.80
2022-11-01T11:06:54.783Z,77.18
2022-11-01T11:08:58.004Z,76.76
2022-11-01T11:11:05.367Z,76.13
2022-11-01T11:13:10.560Z,76.96
2022-11-01T11:15:20.243Z,75.65
2022-11-01T11:17:28.617Z,75.63
2022-11-01T11:19:35.430Z,75.81
2022-11-01T11:21:38.774Z,75.93
2022-11-01T11:23:43.517Z,75.68
2022-11-01T11:25:46.253Z,76.00
2022-11-01T11:27:53.078Z,75.88
2022-11-01T11:29:58.226Z,75.45
2022-11-01T11:32:01.655Z,76.02
2022-11-01T11:34:20.882Z,74.84
2022-11-01T11:36:29.610Z,74.55
2022-11-01T11:38:43.030Z,75.75
2022-11-01T11:40:46.615Z,75.51
2022-11-01T11:42:52.509Z,75.01
2022-11-01T11:44:57.048Z,74.78
2022-11-01T11:46:59.743Z,74.27
2022-11-01T11:49:07.084Z,73.75
2022-11-01T11:51:11.329Z,72.80
2022-11-01T11:53:19.022Z,72.99
2022-11-01T11:55:28.809Z,73.83
2022-11-01T11:57:31.478Z,73.31
2022-11-01T11:59:36.364Z,73.63
2022-11-01T12:01:39.180Z,72.83
2022-11-01T12:03:48.297Z,72.84
2022-11-01T12:05:57.576Z,73.30
2022-11-01T12:08:00.550Z,73.90
2022-11-01T12:10:06.728Z,73.87
2022-11-01T12:12:16.975Z,74.17
2022-11-01T12:14:23.146Z,73.89
2022-11-01T12:18:31.160Z,74.84
2022-11-01T12:20:38.286Z,74.91
2022-11-01T12:22:45.037Z,75.02
2022-11-01T12:24:51.233Z,74.93
2022-11-01T12:26:58.186Z,75.70
2022-11-01T12:29:07.571Z,75.62
2022-11-01T12:31:14.938Z,77.08
2022-11-01T12:33:26.074Z,76.68
2022-11-01T12:35:32.506Z,76.88
2022-11-01T12:37:43.678Z,77.33
2022-11-01T12:39:55.615Z,76.37
2022-11-01T12:42:00.554Z,76.34
2022-11-01T12:44:14.230Z,76.80
2022-11-01T12:46:23.705Z,76.41
2022-11-01T12:48:32.014Z,74.39
2022-11-01T12:50:42.305Z,71.02
2022-11-01T12:52:50.618Z,72.97
2022-11-01T12:55:04.191Z,73.18
2022-11-01T12:57:14.371Z,73.87
2022-11-01T12:59:25.011Z,73.83
2022-11-01T13:01:38.032Z,74.97
2022-11-01T13:03:51.787Z,75.82
2022-11-01T13:06:02.554Z,81.67
2022-11-01T13:08:15.482Z,82.87
2022-11-01T13:10:27.135Z,85.46
2022-11-01T13:12:39.459Z,86.31
2022-11-01T13:14:51.082Z,88.01
2022-11-01T13:17:01.679Z,82.30
2022-11-01T13:19:15.567Z,84.78
2022-11-01T13:21:28.862Z,82.77
2022-11-01T13:23:37.420Z,82.45
2022-11-01T13:25:47.643Z,83.45
2022-11-01T13:28:01.113Z,85.53
2022-11-01T13:30:09.798Z,86.54
2022-11-01T13:32:21.309Z,86.88
2022-11-01T13:34:35.938Z,85.91
2022-11-01T13:36:44.102Z,86.83
2022-11-01T13:38:54.863Z,89.20
2022-11-01T13:41:05.948Z,90.56
2022-11-01T13:43:13.939Z,90.65
2022-11-01T13:45:44.450Z,90.85
2022-11-01T13:47:57.625Z,89.82
2022-11-01T13:50:36.540Z,91.71
2022-11-01T13:52:45.720Z,91.80
2022-11-01T13:54:56.439Z,92.87
2022-11-01T13:57:02.743Z,92.37
2022-11-01T13:59:14.425Z,90.99
2022-11-01T14:01:29.910Z,89.55
2022-11-01T14:03:34.987Z,92.02
2022-11-01T14:05:40.006Z,92.01
2022-11-01T14:08:26.592Z,92.24
2022-11-01T14:10:56.786Z,93.24
2022-11-01T14:13:11.855Z,95.45
2022-11-01T14:15:24.767Z,95.01
2022-11-01T14:18:03.251Z,96.72
2022-11-01T14:20:49.338Z,97.06
2022-11-01T14:22:53.998Z,95.76
2022-11-01T14:25:00.293Z,95.22
2022-11-01T14:27:33.459Z,95.60
2022-11-01T14:29:37.103Z,96.82
2022-11-01T14:31:40.879Z,96.42
2022-11-01T14:33:44.281Z,95.98
2022-11-01T14:35:53.274Z,96.83
2022-11-01T14:38:02.794Z,97.43
2022-11-01T14:40:24.263Z,97.02
2022-11-01T14:42:36.235Z,97.44
2022-11-01T14:44:44.467Z,97.16
2022-11-01T14:46:53.677Z,97.12
2022-11-01T14:49:01.337Z,97.68
2022-11-01T14:51:12.375Z,97.89
2022-11-01T14:53:23.690Z,98.37
2022-11-01T14:55:32.206Z,98.91
2022-11-01T14:57:35.828Z,99.31
2022-11-01T14:59:38.427Z,98.98
2022-11-01T15:01:44.758Z,98.09
2022-11-01T15:03:57.376Z,98.36
2022-11-01T15:06:00.069Z,98.53
2022-11-01T15:08:02.995Z,98.69
2022-11-01T15:10:09.850Z,99.67
2022-11-01T15:12:12.492Z,99.65
2022-11-01T15:14:23.249Z,100.00
2022-11-01T15:16:28.679Z,100.00
2022-11-01T15:18:35.813Z,99.78
2022-11-01T15:20:41.908Z,97.33
2022-11-01T15:22:45.072Z,99.23
2022-11-01T15:24:51.652Z,99.91
2022-11-01T15:26:55.436Z,100.00
2022-11-01T15:29:00.385Z,100.00
2022-11-01T15:31:06.228Z,100.00
2022-11-01T15:33:16.936Z,100.00
2022-11-01T15:35:23.081Z,100.00
2022-11-01T15:37:30.516Z,100.00
2022-11-01T15:39:37.827Z,100.00
2022-11-01T15:41:40.446Z,100.00
2022-11-01T15:43:51.980Z,100.00
2022-11-01T15:45:57.481Z,100.00
2022-11-01T15:48:03.878Z,100.00
2022-11-01T15:50:07.601Z,100.00
2022-11-01T15:52:24.941Z,100.00
2022-11-01T15:54:40.922Z,100.00
2022-11-01T15:56:47.596Z,100.00
2022-11-01T15:58:55.154Z,100.00
2022-11-01T16:01:02.123Z,100.00
2022-11-01T16:03:07.543Z,100.00
2022-11-01T16:05:12.711Z,100.00
2022-11-01T16:07:19.162Z,100.00
2022-11-01T16:09:31.931Z,100.00
2022-11-01T16:11:35.935Z,100.00
2022-11-01T16:13:38.742Z,100.00
2022-11-01T16:15:58.379Z,100.00
2022-11-01T16:18:03.006Z,100.00
2022-11-01T16:20:28.795Z,100.00
2022-11-01T16:22:37.799Z,100.00
2022-11-01T16:24:40.771Z,100.00
2022-11-01T16:26:54.382Z,100.00
2022-11-01T16:28:57.029Z,100.00
2022-11-01T16:31:01.011Z,100.00
2022-11-01T16:33:16.871Z,100.00
2022-11-01T16:35:31.562Z,100.00
2022-11-01T16:37:37.486Z,100.00
2022-11-01T16:39:40.575Z,100.00
2022-11-01T16:41:43.216Z,100.00
2022-11-01T16:43:46.105Z,100.00
2022-11-01T16:45:48.719Z,100.00
2022-11-01T16:47:57.962Z,100.00
2022-11-01T16:50:01.020Z,100.00
2022-11-01T16:52:10.456Z,100.00
2022-11-01T16:54:13.356Z,100.00
2022-11-01T16:56:36.074Z,100.00
2022-11-01T16:58:40.050Z,100.00
2022-11-01T17:00:43.894Z,100.00
2022-11-01T17:02:46.705Z,100.00
2022-11-01T17:04:53.805Z,100.00
2022-11-01T17:06:59.019Z,100.00
2022-11-01T17:09:01.704Z,100.00
2022-11-01T17:11:04.452Z,100.00
2022-11-01T17:13:07.913Z,100.00
2022-11-01T17:15:12.854Z,100.00
2022-11-01T17:17:19.044Z,100.00
2022-11-01T17:19:25.538Z,100.00
2022-11-01T17:21:31.810Z,100.00
2022-11-01T17:23:35.581Z,100.00
2022-11-01T17:25:38.345Z,100.00
2022-11-01T17:27:41.044Z,100.00
2022-11-01T17:29:44.135Z,100.00
2022-11-01T17:31:46.720Z,100.00
2022-11-01T17:33:49.817Z,100.00
2022-11-01T17:35:53.012Z,100.00
2022-11-01T17:37:57.174Z,100.00
2022-11-01T17:40:00.566Z,100.00
2022-11-01T17:42:03.218Z,100.00
2022-11-01T17:44:06.289Z,100.00
2022-11-01T17:46:14.489Z,100.00
2022-11-01T17:48:17.802Z,100.00
2022-11-01T17:50:20.655Z,100.00
2022-11-01T17:52:23.267Z,100.00
2022-11-01T17:54:27.348Z,100.00
2022-11-01T17:56:30.030Z,100.00
2022-11-01T17:58:32.698Z,100.00
2022-11-01T18:00:35.933Z,100.00
2022-11-01T18:02:38.526Z,100.00
2022-11-01T18:04:41.168Z,100.00
2022-11-01T18:06:44.025Z,100.00
2022-11-01T18:08:49.711Z,100.00
2022-11-01T18:11:01.794Z,100.00
2022-11-01T18:13:28.910Z,100.00
2022-11-01T18:15:39.245Z,100.00
2022-11-01T18:17:54.107Z,100.00
2022-11-01T18:20:03.909Z,100.00
2022-11-01T18:22:14.748Z,100.00
2022-11-01T18:24:22.704Z,100.00
2022-11-01T18:26:29.752Z,100.00
2022-11-01T18:28:35.061Z,100.00
2022-11-01T18:30:37.786Z,100.00
2022-11-01T18:32:44.876Z,100.00
2022-11-01T18:34:53.563Z,100.00
2022-11-01T18:37:04.189Z,100.00
2022-11-01T18:39:16.240Z,100.00
2022-11-01T18:41:22.166Z,100.00
2022-11-01T18:43:28.581Z,100.00
2022-11-01T18:45:57.857Z,100.00
2022-11-01T18:48:09.291Z,100.00
2022-11-01T18:50:20.970Z,100.00
2022-11-01T18:52:24.621Z,100.00
2022-11-01T18:54:30.251Z,100.00
2022-11-01T18:56:33.581Z,100.00
2022-11-01T18:58:39.162Z,100.00
2022-11-01T19:00:42.758Z,100.00
2022-11-01T19:02:45.418Z,100.00
2022-11-01T19:04:50.801Z,100.00
2022-11-01T19:06:57.378Z,100.00
2022-11-01T19:09:02.327Z,100.00
2022-11-01T19:11:05.509Z,100.00
2022-11-01T19:13:13.317Z,100.00
2022-11-01T19:15:24.717Z,100.00
2022-11-01T19:17:30.604Z,99.71
2022-11-01T19:19:35.289Z,97.69
2022-11-01T19:21:37.916Z,97.71
2022-11-01T19:23:42.876Z,97.98
2022-11-01T19:25:46.551Z,97.99
2022-11-01T19:27:50.992Z,97.91
2022-11-01T19:29:57.910Z,99.25
2022-11-01T19:32:05.123Z,99.09
2022-11-01T19:34:14.312Z,99.48
2022-11-01T19:36:20.077Z,97.24
2022-11-01T19:38:23.661Z,98.19
2022-11-01T19:40:31.702Z,98.42
2022-11-01T19:42:35.382Z,97.92
2022-11-01T19:44:38.036Z,98.47
2022-11-01T19:46:40.634Z,99.09
2022-11-01T19:48:44.743Z,98.81
2022-11-01T19:50:47.883Z,99.05
2022-11-01T19:52:52.292Z,98.84
2022-11-01T19:54:55.686Z,98.50
2022-11-01T19:57:00.434Z,98.96
2022-11-01T19:59:13.703Z,98.34
2022-11-01T20:01:45.867Z,97.11
2022-11-01T20:03:53.184Z,95.97
2022-11-01T20:05:56.317Z,96.47
2022-11-01T20:08:09.763Z,97.33
2022-11-01T20:10:13.613Z,97.42
2022-11-01T20:12:21.502Z,96.84
2022-11-01T20:14:24.724Z,97.37
2022-11-01T20:16:27.489Z,96.79
2022-11-01T20:18:30.127Z,95.28
2022-11-01T20:20:34.298Z,94.53
2022-11-01T20:22:37.618Z,94.74
2022-11-01T20:24:40.231Z,95.09
2022-11-01T20:26:42.887Z,95.40
2022-11-01T20:28:45.489Z,95.87
2022-11-01T20:30:48.115Z,96.53
2022-11-01T20:32:51.369Z,96.96
2022-11-01T20:34:53.956Z,96.15
2022-11-01T20:37:22.563Z,96.71
2022-11-01T20:39:24.127Z,96.94
2022-11-01T20:41:27.954Z,98.42
2022-11-01T20:43:30.735Z,99.06
2022-11-01T20:45:34.364Z,99.08
2022-11-01T20:47:36.995Z,99.82
2022-11-01T20:49:39.584Z,99.41
2022-11-01T20:51:42.187Z,99.13
2022-11-01T20:53:46.348Z,98.92
2022-11-01T20:55:51.935Z,97.53
2022-11-01T20:57:54.713Z,98.00
2022-11-01T20:59:57.580Z,98.19
2022-11-01T21:02:00.798Z,99.20
2022-11-01T21:04:03.528Z,100.00
2022-11-01T21:06:12.742Z,100.00
2022-11-01T21:08:22.645Z,100.00
2022-11-01T21:10:33.242Z,100.00
2022-11-01T21:12:44.657Z,100.00
2022-11-01T21:14:47.862Z,100.00
2022-11-01T21:16:52.745Z,100.00
2022-11-01T21:18:59.789Z,100.00
2022-11-01T21:21:45.278Z,100.00
2022-11-01T21:23:49.565Z,100.00
2022-11-01T21:25:57.676Z,100.00
2022-11-01T21:28:00.485Z,100.00
2022-11-01T21:30:17.233Z,100.00
2022-11-01T21:32:26.906Z,100.00
2022-11-01T21:34:31.838Z,100.00
2022-11-01T21:36:36.027Z,100.00
2022-11-01T21:38:42.042Z,100.00
2022-11-01T21:40:44.678Z,100.00
2022-11-01T21:42:48.676Z,100.00
2022-11-01T21:44:51.959Z,100.00
2022-11-01T21:46:56.040Z,100.00
2022-11-01T21:49:00.562Z,100.00
2022-11-01T21:51:03.715Z,100.00
2022-11-01T21:53:07.282Z,100.00
2022-11-01T21:55:10.361Z,100.00
2022-11-01T21:57:14.469Z,100.00
2022-11-01T21:59:18.651Z,100.00
2022-11-01T22:01:21.436Z,100.00
2022-11-01T22:03:24.122Z,100.00
2022-11-01T22:05:26.733Z,100.00
2022-11-01T22:07:29.317Z,100.00
2022-11-01T22:09:32.738Z,100.00
2022-11-01T22:11:35.362Z,100.00
2022-11-01T22:13:37.970Z,100.00
2022-11-01T22:15:41.905Z,100.00
2022-11-01T22:17:44.911Z,100.00
2022-11-01T22:19:48.757Z,100.00
2022-11-01T22:21:51.349Z,100.00
2022-11-01T22:23:53.947Z,100.00
2022-11-01T22:25:56.535Z,100.00
2022-11-01T22:27:59.194Z,100.00
2022-11-01T22:30:01.802Z,100.00
2022-11-01T22:32:06.017Z,100.00
2022-11-01T22:34:09.178Z,100.00
2022-11-01T22:36:16.541Z,100.00
2022-11-01T22:38:22.578Z,100.00
2022-11-01T22:40:25.187Z,100.00
2022-11-01T22:42:28.140Z,100.00
2022-11-01T22:44:33.272Z,100.00
2022-11-01T22:46:44.507Z,100.00
2022-11-01T22:48:49.056Z,100.00
2022-11-01T22:50:51.642Z,100.00
2022-11-01T22:52:54.239Z,100.00
2022-11-01T22:55:02.614Z,100.00
2022-11-01T22:57:15.311Z,100.00
2022-11-01T22:59:17.910Z,100.00
2022-11-01T23:01:27.687Z,100.00
2022-11-01T23:03:37.657Z,100.00
2022-11-01T23:05:42.855Z,100.00
2022-11-01T23:07:47.208Z,100.00
2022-11-01T23:09:53.675Z,100.00
2022-11-01T23:12:15.437Z,100.00
2022-11-01T23:14:37.993Z,100.00
2022-11-01T23:16:45.096Z,100.00
2022-11-01T23:18:48.029Z,100.00
2022-11-01T23:20:56.209Z,100.00
2022-11-01T23:23:00.818Z,100.00
2022-11-01T23:25:05.521Z,100.00
2022-11-01T23:27:08.133Z,100.00
2022-11-01T23:29:10.833Z,100.00
2022-11-01T23:31:14.726Z,100.00
2022-11-01T23:33:19.546Z,100.00
2022-11-01T23:35:23.020Z,100.00
2022-11-01T23:37:27.211Z,100.00
2022-11-01T23:39:34.075Z,100.00
2022-11-01T23:41:38.957Z,100.00
2022-11-01T23:43:42.313Z,100.00
2022-11-01T23:45:44.902Z,100.00
2022-11-01T23:47:47.503Z,100.00
2022-11-01T23:49:59.153Z,100.00
2022-11-01T23:52:01.951Z,100.00
2022-11-01T23:54:06.561Z,100.00
2022-11-01T23:56:10.455Z,100.00
2022-11-01T23:58:14.620Z,100.00
